sensor_id;sensor_type;location;lat;lon;timestamp;P1;durP1;ratioP1;P2;durP2;ratioP2
48813;SDS011;34634;44.108;3.074;2022-07-18T00:02:09;8.15;;;4.00;;
48813;SDS011;34634;44.108;3.074;2022-07-18T00:04:46;4.93;;;4.35;;
48813;SDS011;34634;44.108;3.074;2022-07-18T00:07:15;7.00;;;4.10;;
48813;SDS011;34634;44.108;3.074;2022-07-18T00:09:44;6.40;;;4.50;;
48813;SDS011;34634;44.108;3.074;2022-07-18T00:12:12;8.82;;;4.25;;
48813;SDS011;34634;44.108;3.074;2022-07-18T00:14:41;6.90;;;4.28;;
48813;SDS011;34634;44.108;3.074;2022-07-18T00:17:10;6.28;;;4.35;;
48813;SDS011;34634;44.108;3.074;2022-07-18T00:19:39;6.20;;;4.40;;
48813;SDS011;34634;44.108;3.074;2022-07-18T00:22:15;4.97;;;4.50;;
48813;SDS011;34634;44.108;3.074;2022-07-18T00:24:44;5.25;;;4.75;;
48813;SDS011;34634;44.108;3.074;2022-07-18T00:27:21;6.93;;;4.40;;
48813;SDS011;34634;44.108;3.074;2022-07-18T00:29:50;4.88;;;4.40;;
48813;SDS011;34634;44.108;3.074;2022-07-18T00:32:18;6.90;;;4.95;;
48813;SDS011;34634;44.108;3.074;2022-07-18T00:34:55;11.63;;;4.53;;
48813;SDS011;34634;44.108;3.074;2022-07-18T00:37:24;6.10;;;4.30;;
48813;SDS011;34634;44.108;3.074;2022-07-18T00:39:52;7.97;;;4.50;;
48813;SDS011;34634;44.108;3.074;2022-07-18T00:42:22;7.13;;;4.95;;
48813;SDS011;34634;44.108;3.074;2022-07-18T00:44:54;5.50;;;4.85;;
48813;SDS011;34634;44.108;3.074;2022-07-18T00:47:23;6.78;;;4.82;;
48813;SDS011;34634;44.108;3.074;2022-07-18T00:49:51;5.07;;;4.55;;
48813;SDS011;34634;44.108;3.074;2022-07-18T00:52:20;5.97;;;4.30;;
48813;SDS011;34634;44.108;3.074;2022-07-18T00:54:49;5.25;;;4.75;;
48813;SDS011;34634;44.108;3.074;2022-07-18T00:57:18;5.65;;;4.45;;
48813;SDS011;34634;44.108;3.074;2022-07-18T00:59:46;5.57;;;5.00;;
48813;SDS011;34634;44.108;3.074;2022-07-18T01:02:34;6.75;;;4.55;;
48813;SDS011;34634;44.108;3.074;2022-07-18T01:05:03;7.28;;;4.75;;
48813;SDS011;34634;44.108;3.074;2022-07-18T01:07:33;6.43;;;4.60;;
48813;SDS011;34634;44.108;3.074;2022-07-18T01:10:10;7.03;;;5.25;;
48813;SDS011;34634;44.108;3.074;2022-07-18T01:12:39;7.38;;;4.78;;
48813;SDS011;34634;44.108;3.074;2022-07-18T01:15:08;7.30;;;5.10;;
48813;SDS011;34634;44.108;3.074;2022-07-18T01:17:36;6.55;;;5.60;;
48813;SDS011;34634;44.108;3.074;2022-07-18T01:20:05;8.18;;;5.18;;
48813;SDS011;34634;44.108;3.074;2022-07-18T01:22:34;5.70;;;4.50;;
48813;SDS011;34634;44.108;3.074;2022-07-18T01:25:03;6.95;;;5.53;;
48813;SDS011;34634;44.108;3.074;2022-07-18T01:27:32;6.40;;;5.60;;
48813;SDS011;34634;44.108;3.074;2022-07-18T01:30:02;6.07;;;5.47;;
48813;SDS011;34634;44.108;3.074;2022-07-18T01:32:31;6.22;;;5.63;;
48813;SDS011;34634;44.108;3.074;2022-07-18T01:35:07;10.00;;;5.70;;
48813;SDS011;34634;44.108;3.074;2022-07-18T01:37:36;9.70;;;5.45;;
48813;SDS011;34634;44.108;3.074;2022-07-18T01:40:09;6.95;;;5.70;;
48813;SDS011;34634;44.108;3.074;2022-07-18T01:42:46;6.38;;;5.75;;
48813;SDS011;34634;44.108;3.074;2022-07-18T01:45:15;8.90;;;5.45;;
48813;SDS011;34634;44.108;3.074;2022-07-18T01:47:44;6.53;;;5.82;;
48813;SDS011;34634;44.108;3.074;2022-07-18T01:50:13;6.07;;;5.47;;
48813;SDS011;34634;44.108;3.074;2022-07-18T01:52:42;10.18;;;6.07;;
48813;SDS011;34634;44.108;3.074;2022-07-18T01:55:11;6.80;;;5.32;;
48813;SDS011;34634;44.108;3.074;2022-07-18T01:57:39;7.13;;;5.38;;
48813;SDS011;34634;44.108;3.074;2022-07-18T02:00:09;5.75;;;5.25;;
48813;SDS011;34634;44.108;3.074;2022-07-18T02:02:48;5.93;;;5.32;;
48813;SDS011;34634;44.108;3.074;2022-07-18T02:05:17;7.47;;;5.43;;
48813;SDS011;34634;44.108;3.074;2022-07-18T02:07:46;7.25;;;5.93;;
48813;SDS011;34634;44.108;3.074;2022-07-18T02:10:15;6.07;;;5.47;;
48813;SDS011;34634;44.108;3.074;2022-07-18T02:12:54;9.35;;;6.22;;
48813;SDS011;34634;44.108;3.074;2022-07-18T02:15:23;8.63;;;5.97;;
48813;SDS011;34634;44.108;3.074;2022-07-18T02:17:52;7.22;;;6.03;;
48813;SDS011;34634;44.108;3.074;2022-07-18T02:20:21;13.85;;;5.88;;
48813;SDS011;34634;44.108;3.074;2022-07-18T02:22:50;9.60;;;5.80;;
48813;SDS011;34634;44.108;3.074;2022-07-18T02:25:18;5.90;;;5.30;;
48813;SDS011;34634;44.108;3.074;2022-07-18T02:27:47;7.63;;;5.80;;
48813;SDS011;34634;44.108;3.074;2022-07-18T02:30:16;8.40;;;6.15;;
48813;SDS011;34634;44.108;3.074;2022-07-18T02:36:06;7.50;;;6.10;;
48813;SDS011;34634;44.108;3.074;2022-07-18T02:38:35;8.00;;;5.90;;
48813;SDS011;34634;44.108;3.074;2022-07-18T02:41:04;6.45;;;5.80;;
48813;SDS011;34634;44.108;3.074;2022-07-18T02:43:33;7.07;;;5.90;;
48813;SDS011;34634;44.108;3.074;2022-07-18T02:46:02;8.38;;;6.22;;
48813;SDS011;34634;44.108;3.074;2022-07-18T02:48:41;7.85;;;6.00;;
48813;SDS011;34634;44.108;3.074;2022-07-18T02:51:10;7.10;;;6.15;;
48813;SDS011;34634;44.108;3.074;2022-07-18T02:53:39;10.32;;;6.45;;
48813;SDS011;34634;44.108;3.074;2022-07-18T02:56:07;9.35;;;6.30;;
48813;SDS011;34634;44.108;3.074;2022-07-18T02:58:46;8.55;;;6.18;;
48813;SDS011;34634;44.108;3.074;2022-07-18T03:01:14;7.78;;;6.32;;
48813;SDS011;34634;44.108;3.074;2022-07-18T03:03:43;8.68;;;6.40;;
48813;SDS011;34634;44.108;3.074;2022-07-18T03:06:12;8.63;;;6.55;;
48813;SDS011;34634;44.108;3.074;2022-07-18T03:08:48;8.40;;;6.68;;
48813;SDS011;34634;44.108;3.074;2022-07-18T03:11:25;6.85;;;6.03;;
48813;SDS011;34634;44.108;3.074;2022-07-18T03:13:54;12.40;;;6.18;;
48813;SDS011;34634;44.108;3.074;2022-07-18T03:16:23;8.00;;;6.13;;
48813;SDS011;34634;44.108;3.074;2022-07-18T03:18:51;8.25;;;6.22;;
48813;SDS011;34634;44.108;3.074;2022-07-18T03:21:30;8.07;;;6.22;;
48813;SDS011;34634;44.108;3.074;2022-07-18T03:23:59;8.95;;;6.88;;
48813;SDS011;34634;44.108;3.074;2022-07-18T03:26:28;8.82;;;6.82;;
48813;SDS011;34634;44.108;3.074;2022-07-18T03:28:56;7.47;;;6.55;;
48813;SDS011;34634;44.108;3.074;2022-07-18T03:31:25;8.52;;;6.88;;
48813;SDS011;34634;44.108;3.074;2022-07-18T03:33:54;8.60;;;6.80;;
48813;SDS011;34634;44.108;3.074;2022-07-18T03:36:30;9.38;;;7.18;;
48813;SDS011;34634;44.108;3.074;2022-07-18T03:39:00;9.85;;;6.80;;
48813;SDS011;34634;44.108;3.074;2022-07-18T03:41:38;8.75;;;6.55;;
48813;SDS011;34634;44.108;3.074;2022-07-18T03:44:07;8.35;;;7.18;;
48813;SDS011;34634;44.108;3.074;2022-07-18T03:46:35;9.60;;;7.05;;
48813;SDS011;34634;44.108;3.074;2022-07-18T03:49:15;8.23;;;6.70;;
48813;SDS011;34634;44.108;3.074;2022-07-18T03:51:44;10.70;;;6.28;;
48813;SDS011;34634;44.108;3.074;2022-07-18T03:54:12;7.63;;;6.70;;
48813;SDS011;34634;44.108;3.074;2022-07-18T03:56:41;6.93;;;6.30;;
48813;SDS011;34634;44.108;3.074;2022-07-18T03:59:20;9.60;;;7.30;;
48813;SDS011;34634;44.108;3.074;2022-07-18T04:01:48;11.63;;;7.05;;
48813;SDS011;34634;44.108;3.074;2022-07-18T04:04:17;10.45;;;6.95;;
48813;SDS011;34634;44.108;3.074;2022-07-18T04:06:46;8.95;;;7.53;;
48813;SDS011;34634;44.108;3.074;2022-07-18T04:09:15;8.63;;;7.45;;
48813;SDS011;34634;44.108;3.074;2022-07-18T04:11:44;10.30;;;7.60;;
48813;SDS011;34634;44.108;3.074;2022-07-18T04:14:12;8.95;;;7.70;;
48813;SDS011;34634;44.108;3.074;2022-07-18T04:16:41;9.27;;;6.93;;
48813;SDS011;34634;44.108;3.074;2022-07-18T04:19:19;8.50;;;7.53;;
48813;SDS011;34634;44.108;3.074;2022-07-18T04:21:57;35.13;;;9.65;;
48813;SDS011;34634;44.108;3.074;2022-07-18T04:24:34;14.07;;;7.72;;
48813;SDS011;34634;44.108;3.074;2022-07-18T04:27:11;10.48;;;6.85;;
48813;SDS011;34634;44.108;3.074;2022-07-18T04:29:39;11.30;;;7.57;;
48813;SDS011;34634;44.108;3.074;2022-07-18T04:32:19;9.95;;;7.47;;
48813;SDS011;34634;44.108;3.074;2022-07-18T04:34:48;19.90;;;7.70;;
48813;SDS011;34634;44.108;3.074;2022-07-18T04:37:17;22.02;;;8.27;;
48813;SDS011;34634;44.108;3.074;2022-07-18T04:39:46;13.48;;;7.53;;
48813;SDS011;34634;44.108;3.074;2022-07-18T04:42:14;11.93;;;7.38;;
48813;SDS011;34634;44.108;3.074;2022-07-18T04:44:51;11.93;;;7.70;;
48813;SDS011;34634;44.108;3.074;2022-07-18T04:47:20;9.00;;;7.20;;
48813;SDS011;34634;44.108;3.074;2022-07-18T04:49:49;14.88;;;7.40;;
48813;SDS011;34634;44.108;3.074;2022-07-18T04:52:17;11.57;;;7.80;;
48813;SDS011;34634;44.108;3.074;2022-07-18T04:54:46;10.73;;;7.05;;
48813;SDS011;34634;44.108;3.074;2022-07-18T04:57:15;8.95;;;6.95;;
48813;SDS011;34634;44.108;3.074;2022-07-18T04:59:52;10.30;;;7.45;;
48813;SDS011;34634;44.108;3.074;2022-07-18T05:02:28;10.73;;;7.70;;
48813;SDS011;34634;44.108;3.074;2022-07-18T05:05:05;10.88;;;7.43;;
48813;SDS011;34634;44.108;3.074;2022-07-18T05:07:34;8.52;;;7.43;;
48813;SDS011;34634;44.108;3.074;2022-07-18T05:10:17;8.00;;;7.20;;
48813;SDS011;34634;44.108;3.074;2022-07-18T05:12:55;9.85;;;7.88;;
48813;SDS011;34634;44.108;3.074;2022-07-18T05:15:33;13.98;;;7.63;;
48813;SDS011;34634;44.108;3.074;2022-07-18T05:18:10;11.27;;;7.30;;
48813;SDS011;34634;44.108;3.074;2022-07-18T05:20:46;27.75;;;8.98;;
48813;SDS011;34634;44.108;3.074;2022-07-18T05:23:15;10.38;;;7.57;;
48813;SDS011;34634;44.108;3.074;2022-07-18T05:25:44;10.43;;;7.75;;
48813;SDS011;34634;44.108;3.074;2022-07-18T05:28:13;25.77;;;8.52;;
48813;SDS011;34634;44.108;3.074;2022-07-18T05:30:42;11.13;;;7.72;;
48813;SDS011;34634;44.108;3.074;2022-07-18T05:33:11;8.63;;;7.25;;
48813;SDS011;34634;44.108;3.074;2022-07-18T05:35:39;9.55;;;7.82;;
48813;SDS011;34634;44.108;3.074;2022-07-18T05:38:08;10.65;;;7.15;;
48813;SDS011;34634;44.108;3.074;2022-07-18T05:40:37;13.85;;;7.72;;
48813;SDS011;34634;44.108;3.074;2022-07-18T05:43:06;9.90;;;7.47;;
48813;SDS011;34634;44.108;3.074;2022-07-18T05:45:34;15.07;;;7.22;;
48813;SDS011;34634;44.108;3.074;2022-07-18T05:48:13;35.80;;;8.20;;
48813;SDS011;34634;44.108;3.074;2022-07-18T05:50:42;17.00;;;6.97;;
48813;SDS011;34634;44.108;3.074;2022-07-18T05:53:19;45.10;;;9.70;;
48813;SDS011;34634;44.108;3.074;2022-07-18T05:55:56;21.10;;;7.07;;
48813;SDS011;34634;44.108;3.074;2022-07-18T05:58:25;9.45;;;6.40;;
48813;SDS011;34634;44.108;3.074;2022-07-18T06:00:54;9.52;;;6.28;;
48813;SDS011;34634;44.108;3.074;2022-07-18T06:03:36;17.17;;;6.35;;
48813;SDS011;34634;44.108;3.074;2022-07-18T06:06:15;11.77;;;6.60;;
48813;SDS011;34634;44.108;3.074;2022-07-18T06:08:46;11.95;;;6.25;;
48813;SDS011;34634;44.108;3.074;2022-07-18T06:11:14;8.48;;;6.85;;
48813;SDS011;34634;44.108;3.074;2022-07-18T06:13:43;7.75;;;6.53;;
48813;SDS011;34634;44.108;3.074;2022-07-18T06:16:12;13.20;;;6.75;;
48813;SDS011;34634;44.108;3.074;2022-07-18T06:18:41;7.63;;;6.22;;
48813;SDS011;34634;44.108;3.074;2022-07-18T06:21:10;8.77;;;6.55;;
48813;SDS011;34634;44.108;3.074;2022-07-18T06:23:38;10.18;;;5.90;;
48813;SDS011;34634;44.108;3.074;2022-07-18T06:26:07;15.70;;;5.95;;
48813;SDS011;34634;44.108;3.074;2022-07-18T06:28:36;30.48;;;6.75;;
48813;SDS011;34634;44.108;3.074;2022-07-18T06:31:05;13.02;;;5.80;;
48813;SDS011;34634;44.108;3.074;2022-07-18T06:33:34;7.72;;;5.43;;
48813;SDS011;34634;44.108;3.074;2022-07-18T06:36:02;8.45;;;5.47;;
48813;SDS011;34634;44.108;3.074;2022-07-18T06:38:33;11.68;;;6.03;;
48813;SDS011;34634;44.108;3.074;2022-07-18T06:41:02;7.93;;;6.50;;
48813;SDS011;34634;44.108;3.074;2022-07-18T06:43:30;9.45;;;5.70;;
48813;SDS011;34634;44.108;3.074;2022-07-18T06:45:59;9.73;;;7.15;;
48813;SDS011;34634;44.108;3.074;2022-07-18T06:48:28;8.80;;;5.22;;
48813;SDS011;34634;44.108;3.074;2022-07-18T06:51:01;17.02;;;5.10;;
48813;SDS011;34634;44.108;3.074;2022-07-18T06:53:30;13.30;;;5.13;;
48813;SDS011;34634;44.108;3.074;2022-07-18T06:55:59;9.02;;;4.78;;
48813;SDS011;34634;44.108;3.074;2022-07-18T06:58:40;10.15;;;4.63;;
48813;SDS011;34634;44.108;3.074;2022-07-18T07:01:09;17.08;;;5.60;;
48813;SDS011;34634;44.108;3.074;2022-07-18T07:03:38;19.42;;;5.50;;
48813;SDS011;34634;44.108;3.074;2022-07-18T07:06:07;32.67;;;6.22;;
48813;SDS011;34634;44.108;3.074;2022-07-18T07:08:45;11.93;;;5.32;;
48813;SDS011;34634;44.108;3.074;2022-07-18T07:11:14;17.92;;;5.75;;
48813;SDS011;34634;44.108;3.074;2022-07-18T07:13:43;13.35;;;5.32;;
48813;SDS011;34634;44.108;3.074;2022-07-18T07:16:12;33.88;;;6.50;;
48813;SDS011;34634;44.108;3.074;2022-07-18T07:18:40;15.50;;;4.90;;
48813;SDS011;34634;44.108;3.074;2022-07-18T07:21:09;15.43;;;4.45;;
48813;SDS011;34634;44.108;3.074;2022-07-18T07:23:46;9.88;;;4.35;;
48813;SDS011;34634;44.108;3.074;2022-07-18T07:26:14;4.53;;;4.07;;
48813;SDS011;34634;44.108;3.074;2022-07-18T07:28:51;8.23;;;3.90;;
48813;SDS011;34634;44.108;3.074;2022-07-18T07:31:20;5.95;;;3.75;;
48813;SDS011;34634;44.108;3.074;2022-07-18T07:33:49;7.90;;;3.80;;
48813;SDS011;34634;44.108;3.074;2022-07-18T07:36:17;4.10;;;3.75;;
48813;SDS011;34634;44.108;3.074;2022-07-18T07:38:54;8.13;;;3.90;;
48813;SDS011;34634;44.108;3.074;2022-07-18T07:41:23;4.85;;;3.75;;
48813;SDS011;34634;44.108;3.074;2022-07-18T07:43:52;3.85;;;3.40;;
48813;SDS011;34634;44.108;3.074;2022-07-18T07:46:20;7.38;;;3.60;;
48813;SDS011;34634;44.108;3.074;2022-07-18T07:48:57;7.85;;;3.60;;
48813;SDS011;34634;44.108;3.074;2022-07-18T07:51:36;6.53;;;3.58;;
48813;SDS011;34634;44.108;3.074;2022-07-18T07:54:04;6.55;;;3.92;;
48813;SDS011;34634;44.108;3.074;2022-07-18T07:56:33;5.85;;;3.60;;
48813;SDS011;34634;44.108;3.074;2022-07-18T07:59:02;7.70;;;4.30;;
48813;SDS011;34634;44.108;3.074;2022-07-18T08:01:31;5.72;;;3.47;;
48813;SDS011;34634;44.108;3.074;2022-07-18T08:03:59;10.82;;;4.15;;
48813;SDS011;34634;44.108;3.074;2022-07-18T08:06:28;12.85;;;4.30;;
48813;SDS011;34634;44.108;3.074;2022-07-18T08:09:05;5.00;;;4.22;;
48813;SDS011;34634;44.108;3.074;2022-07-18T08:11:35;9.95;;;3.90;;
48813;SDS011;34634;44.108;3.074;2022-07-18T08:14:04;6.68;;;3.60;;
48813;SDS011;34634;44.108;3.074;2022-07-18T08:16:33;24.40;;;4.45;;
48813;SDS011;34634;44.108;3.074;2022-07-18T08:19:02;5.40;;;3.33;;
48813;SDS011;34634;44.108;3.074;2022-07-18T08:21:30;6.77;;;4.40;;
48813;SDS011;34634;44.108;3.074;2022-07-18T08:23:59;9.40;;;3.58;;
48813;SDS011;34634;44.108;3.074;2022-07-18T08:26:28;9.25;;;3.90;;
48813;SDS011;34634;44.108;3.074;2022-07-18T08:28:57;7.43;;;4.60;;
48813;SDS011;34634;44.108;3.074;2022-07-18T08:31:33;8.90;;;4.47;;
48813;SDS011;34634;44.108;3.074;2022-07-18T08:34:02;5.47;;;3.80;;
48813;SDS011;34634;44.108;3.074;2022-07-18T08:36:31;4.63;;;4.10;;
48813;SDS011;34634;44.108;3.074;2022-07-18T08:39:07;5.50;;;3.83;;
48813;SDS011;34634;44.108;3.074;2022-07-18T08:41:36;4.73;;;3.40;;
48813;SDS011;34634;44.108;3.074;2022-07-18T08:44:06;9.68;;;4.10;;
48813;SDS011;34634;44.108;3.074;2022-07-18T08:46:50;7.80;;;4.18;;
48813;SDS011;34634;44.108;3.074;2022-07-18T08:49:29;11.45;;;3.60;;
48813;SDS011;34634;44.108;3.074;2022-07-18T08:51:58;8.55;;;3.53;;
48813;SDS011;34634;44.108;3.074;2022-07-18T08:54:27;6.57;;;4.13;;
48813;SDS011;34634;44.108;3.074;2022-07-18T08:57:04;6.63;;;4.20;;
48813;SDS011;34634;44.108;3.074;2022-07-18T08:59:40;6.68;;;3.88;;
48813;SDS011;34634;44.108;3.074;2022-07-18T09:02:17;6.53;;;3.70;;
48813;SDS011;34634;44.108;3.074;2022-07-18T09:04:46;25.03;;;5.40;;
48813;SDS011;34634;44.108;3.074;2022-07-18T09:07:24;19.73;;;4.18;;
48813;SDS011;34634;44.108;3.074;2022-07-18T09:09:54;4.15;;;3.53;;
48813;SDS011;34634;44.108;3.074;2022-07-18T09:12:33;4.38;;;3.60;;
48813;SDS011;34634;44.108;3.074;2022-07-18T09:15:05;7.47;;;3.65;;
48813;SDS011;34634;44.108;3.074;2022-07-18T09:17:45;4.32;;;3.05;;
48813;SDS011;34634;44.108;3.074;2022-07-18T09:20:14;6.22;;;3.40;;
48813;SDS011;34634;44.108;3.074;2022-07-18T09:22:51;5.00;;;3.50;;
48813;SDS011;34634;44.108;3.074;2022-07-18T09:25:21;5.25;;;3.50;;
48813;SDS011;34634;44.108;3.074;2022-07-18T09:28:08;4.47;;;3.53;;
48813;SDS011;34634;44.108;3.074;2022-07-18T09:30:37;3.22;;;2.92;;
48813;SDS011;34634;44.108;3.074;2022-07-18T09:33:07;9.57;;;3.83;;
48813;SDS011;34634;44.108;3.074;2022-07-18T09:35:43;4.78;;;3.10;;
48813;SDS011;34634;44.108;3.074;2022-07-18T09:38:27;5.95;;;3.05;;
48813;SDS011;34634;44.108;3.074;2022-07-18T09:41:05;7.45;;;2.78;;
48813;SDS011;34634;44.108;3.074;2022-07-18T09:43:47;4.75;;;2.30;;
48813;SDS011;34634;44.108;3.074;2022-07-18T09:46:25;8.07;;;3.08;;
48813;SDS011;34634;44.108;3.074;2022-07-18T09:49:09;4.28;;;2.20;;
48813;SDS011;34634;44.108;3.074;2022-07-18T09:52:01;6.72;;;2.60;;
48813;SDS011;34634;44.108;3.074;2022-07-18T09:54:43;6.75;;;2.75;;
48813;SDS011;34634;44.108;3.074;2022-07-18T09:57:26;7.95;;;2.95;;
48813;SDS011;34634;44.108;3.074;2022-07-18T09:59:56;9.20;;;2.72;;
48813;SDS011;34634;44.108;3.074;2022-07-18T10:02:37;4.47;;;2.50;;
48813;SDS011;34634;44.108;3.074;2022-07-18T10:05:19;8.23;;;2.80;;
48813;SDS011;34634;44.108;3.074;2022-07-18T10:07:48;4.22;;;2.53;;
48813;SDS011;34634;44.108;3.074;2022-07-18T10:10:16;6.70;;;2.50;;
48813;SDS011;34634;44.108;3.074;2022-07-18T10:12:45;2.75;;;2.55;;
48813;SDS011;34634;44.108;3.074;2022-07-18T10:15:14;7.55;;;2.80;;
48813;SDS011;34634;44.108;3.074;2022-07-18T10:17:43;3.97;;;2.80;;
48813;SDS011;34634;44.108;3.074;2022-07-18T10:20:12;3.22;;;2.83;;
48813;SDS011;34634;44.108;3.074;2022-07-18T10:22:41;9.93;;;2.90;;
48813;SDS011;34634;44.108;3.074;2022-07-18T10:25:20;4.40;;;2.58;;
48813;SDS011;34634;44.108;3.074;2022-07-18T10:28:06;5.22;;;2.90;;
48813;SDS011;34634;44.108;3.074;2022-07-18T10:36:09;5.78;;;2.60;;
48813;SDS011;34634;44.108;3.074;2022-07-18T10:38:38;6.28;;;2.50;;
48813;SDS011;34634;44.108;3.074;2022-07-18T10:41:16;2.85;;;2.50;;
48813;SDS011;34634;44.108;3.074;2022-07-18T10:43:45;2.83;;;2.33;;
48813;SDS011;34634;44.108;3.074;2022-07-18T10:46:21;3.45;;;2.33;;
48813;SDS011;34634;44.108;3.074;2022-07-18T10:48:58;2.50;;;2.28;;
48813;SDS011;34634;44.108;3.074;2022-07-18T10:51:35;5.28;;;2.42;;
48813;SDS011;34634;44.108;3.074;2022-07-18T10:54:11;6.18;;;2.42;;
48813;SDS011;34634;44.108;3.074;2022-07-18T10:59:17;3.05;;;2.17;;
48813;SDS011;34634;44.108;3.074;2022-07-18T11:01:47;4.80;;;2.90;;
48813;SDS011;34634;44.108;3.074;2022-07-18T11:07:14;7.50;;;2.90;;
48813;SDS011;34634;44.108;3.074;2022-07-18T11:09:43;12.70;;;3.00;;
48813;SDS011;34634;44.108;3.074;2022-07-18T11:15:05;3.92;;;2.65;;
48813;SDS011;34634;44.108;3.074;2022-07-18T11:18:03;8.88;;;2.70;;
48813;SDS011;34634;44.108;3.074;2022-07-18T11:20:40;8.10;;;2.75;;
48813;SDS011;34634;44.108;3.074;2022-07-18T11:23:19;7.85;;;2.80;;
48813;SDS011;34634;44.108;3.074;2022-07-18T11:25:50;16.45;;;3.38;;
48813;SDS011;34634;44.108;3.074;2022-07-18T11:28:28;4.72;;;2.97;;
48813;SDS011;34634;44.108;3.074;2022-07-18T11:31:07;4.65;;;2.40;;
48813;SDS011;34634;44.108;3.074;2022-07-18T11:33:45;3.30;;;2.72;;
48813;SDS011;34634;44.108;3.074;2022-07-18T11:36:29;5.13;;;2.70;;
48813;SDS011;34634;44.108;3.074;2022-07-18T11:38:59;6.70;;;3.35;;
48813;SDS011;34634;44.108;3.074;2022-07-18T11:41:39;5.90;;;2.58;;
48813;SDS011;34634;44.108;3.074;2022-07-18T11:44:17;12.38;;;2.83;;
48813;SDS011;34634;44.108;3.074;2022-07-18T11:47:04;19.75;;;3.40;;
48813;SDS011;34634;44.108;3.074;2022-07-18T11:49:34;5.60;;;2.60;;
48813;SDS011;34634;44.108;3.074;2022-07-18T11:52:11;5.57;;;2.70;;
48813;SDS011;34634;44.108;3.074;2022-07-18T11:54:40;6.95;;;2.55;;
48813;SDS011;34634;44.108;3.074;2022-07-18T11:57:08;6.40;;;2.50;;
48813;SDS011;34634;44.108;3.074;2022-07-18T11:59:41;11.32;;;2.70;;
48813;SDS011;34634;44.108;3.074;2022-07-18T12:08:28;6.65;;;2.60;;
48813;SDS011;34634;44.108;3.074;2022-07-18T12:16:35;10.93;;;2.80;;
48813;SDS011;34634;44.108;3.074;2022-07-18T12:19:08;6.78;;;2.33;;
48813;SDS011;34634;44.108;3.074;2022-07-18T12:21:48;4.95;;;3.03;;
48813;SDS011;34634;44.108;3.074;2022-07-18T12:24:31;2.70;;;2.40;;
48813;SDS011;34634;44.108;3.074;2022-07-18T12:35:22;6.45;;;2.80;;
48813;SDS011;34634;44.108;3.074;2022-07-18T12:38:07;5.72;;;2.47;;
48813;SDS011;34634;44.108;3.074;2022-07-18T12:43:29;5.55;;;3.08;;
48813;SDS011;34634;44.108;3.074;2022-07-18T12:46:10;8.02;;;2.75;;
48813;SDS011;34634;44.108;3.074;2022-07-18T12:48:39;6.25;;;3.17;;
48813;SDS011;34634;44.108;3.074;2022-07-18T12:51:10;5.72;;;2.30;;
48813;SDS011;34634;44.108;3.074;2022-07-18T12:53:47;3.60;;;2.60;;
48813;SDS011;34634;44.108;3.074;2022-07-18T12:56:16;5.95;;;2.70;;
48813;SDS011;34634;44.108;3.074;2022-07-18T12:58:55;4.68;;;3.00;;
48813;SDS011;34634;44.108;3.074;2022-07-18T13:01:24;7.00;;;2.95;;
48813;SDS011;34634;44.108;3.074;2022-07-18T13:03:52;3.60;;;2.55;;
48813;SDS011;34634;44.108;3.074;2022-07-18T13:06:21;6.60;;;2.80;;
48813;SDS011;34634;44.108;3.074;2022-07-18T13:08:50;4.97;;;3.00;;
48813;SDS011;34634;44.108;3.074;2022-07-18T13:11:18;4.45;;;2.83;;
48813;SDS011;34634;44.108;3.074;2022-07-18T13:13:55;5.97;;;2.70;;
48813;SDS011;34634;44.108;3.074;2022-07-18T13:16:24;5.57;;;3.13;;
48813;SDS011;34634;44.108;3.074;2022-07-18T13:19:02;5.63;;;2.50;;
48813;SDS011;34634;44.108;3.074;2022-07-18T13:21:31;5.05;;;2.58;;
48813;SDS011;34634;44.108;3.074;2022-07-18T13:24:00;5.38;;;2.67;;
48813;SDS011;34634;44.108;3.074;2022-07-18T13:26:28;6.78;;;2.80;;
48813;SDS011;34634;44.108;3.074;2022-07-18T13:28:57;2.58;;;2.38;;
48813;SDS011;34634;44.108;3.074;2022-07-18T13:31:34;8.32;;;2.67;;
48813;SDS011;34634;44.108;3.074;2022-07-18T13:34:12;7.78;;;2.55;;
48813;SDS011;34634;44.108;3.074;2022-07-18T13:36:41;2.78;;;2.53;;
48813;SDS011;34634;44.108;3.074;2022-07-18T13:39:18;5.28;;;2.65;;
48813;SDS011;34634;44.108;3.074;2022-07-18T13:41:47;4.90;;;2.40;;
48813;SDS011;34634;44.108;3.074;2022-07-18T13:44:28;4.60;;;2.33;;
48813;SDS011;34634;44.108;3.074;2022-07-18T13:46:57;6.82;;;2.60;;
48813;SDS011;34634;44.108;3.074;2022-07-18T13:49:26;7.22;;;2.35;;
48813;SDS011;34634;44.108;3.074;2022-07-18T13:51:54;5.50;;;2.20;;
48813;SDS011;34634;44.108;3.074;2022-07-18T13:54:23;5.00;;;2.65;;
48813;SDS011;34634;44.108;3.074;2022-07-18T13:56:52;2.85;;;2.22;;
48813;SDS011;34634;44.108;3.074;2022-07-18T13:59:30;3.90;;;2.42;;
48813;SDS011;34634;44.108;3.074;2022-07-18T14:01:59;5.40;;;2.42;;
48813;SDS011;34634;44.108;3.074;2022-07-18T14:04:28;7.97;;;2.42;;
48813;SDS011;34634;44.108;3.074;2022-07-18T14:06:56;6.53;;;2.42;;
48813;SDS011;34634;44.108;3.074;2022-07-18T14:09:25;4.38;;;2.25;;
48813;SDS011;34634;44.108;3.074;2022-07-18T14:12:04;4.18;;;2.40;;
48813;SDS011;34634;44.108;3.074;2022-07-18T14:14:43;5.55;;;2.25;;
48813;SDS011;34634;44.108;3.074;2022-07-18T14:17:12;3.35;;;2.30;;
48813;SDS011;34634;44.108;3.074;2022-07-18T14:19:41;4.35;;;2.42;;
48813;SDS011;34634;44.108;3.074;2022-07-18T14:22:10;9.75;;;2.60;;
48813;SDS011;34634;44.108;3.074;2022-07-18T14:24:48;4.13;;;2.63;;
48813;SDS011;34634;44.108;3.074;2022-07-18T14:27:24;3.17;;;2.40;;
48813;SDS011;34634;44.108;3.074;2022-07-18T14:30:02;6.40;;;2.40;;
48813;SDS011;34634;44.108;3.074;2022-07-18T14:32:31;5.82;;;2.60;;
48813;SDS011;34634;44.108;3.074;2022-07-18T14:35:08;3.75;;;2.40;;
48813;SDS011;34634;44.108;3.074;2022-07-18T14:37:37;4.70;;;3.00;;
48813;SDS011;34634;44.108;3.074;2022-07-18T14:40:06;4.30;;;2.55;;
48813;SDS011;34634;44.108;3.074;2022-07-18T14:42:35;2.53;;;2.30;;
48813;SDS011;34634;44.108;3.074;2022-07-18T14:45:05;6.68;;;2.83;;
48813;SDS011;34634;44.108;3.074;2022-07-18T14:50:14;8.18;;;2.65;;
48813;SDS011;34634;44.108;3.074;2022-07-18T14:52:43;6.68;;;2.60;;
48813;SDS011;34634;44.108;3.074;2022-07-18T14:55:11;6.38;;;2.50;;
48813;SDS011;34634;44.108;3.074;2022-07-18T14:57:40;3.08;;;2.50;;
48813;SDS011;34634;44.108;3.074;2022-07-18T15:00:09;4.22;;;2.50;;
48813;SDS011;34634;44.108;3.074;2022-07-18T15:02:38;7.28;;;2.60;;
48813;SDS011;34634;44.108;3.074;2022-07-18T15:05:07;3.45;;;2.58;;
48813;SDS011;34634;44.108;3.074;2022-07-18T15:07:45;5.18;;;2.50;;
48813;SDS011;34634;44.108;3.074;2022-07-18T15:10:13;2.80;;;2.28;;
48813;SDS011;34634;44.108;3.074;2022-07-18T15:12:42;4.82;;;2.30;;
48813;SDS011;34634;44.108;3.074;2022-07-18T15:15:11;3.28;;;2.17;;
48813;SDS011;34634;44.108;3.074;2022-07-18T15:17:40;4.72;;;2.78;;
48813;SDS011;34634;44.108;3.074;2022-07-18T15:20:20;5.70;;;2.83;;
48813;SDS011;34634;44.108;3.074;2022-07-18T15:22:49;4.32;;;2.50;;
48813;SDS011;34634;44.108;3.074;2022-07-18T15:25:17;4.47;;;2.60;;
48813;SDS011;34634;44.108;3.074;2022-07-18T15:27:46;4.47;;;2.30;;
48813;SDS011;34634;44.108;3.074;2022-07-18T15:30:15;8.02;;;2.80;;
48813;SDS011;34634;44.108;3.074;2022-07-18T15:32:44;4.18;;;2.45;;
48813;SDS011;34634;44.108;3.074;2022-07-18T15:35:12;3.15;;;2.45;;
48813;SDS011;34634;44.108;3.074;2022-07-18T15:37:41;3.03;;;2.58;;
48813;SDS011;34634;44.108;3.074;2022-07-18T15:40:10;3.38;;;2.70;;
48813;SDS011;34634;44.108;3.074;2022-07-18T15:42:39;5.20;;;3.10;;
48813;SDS011;34634;44.108;3.074;2022-07-18T15:45:15;5.65;;;2.72;;
48813;SDS011;34634;44.108;3.074;2022-07-18T15:47:44;3.58;;;2.60;;
48813;SDS011;34634;44.108;3.074;2022-07-18T15:50:30;4.20;;;2.67;;
48813;SDS011;34634;44.108;3.074;2022-07-18T15:53:08;4.20;;;2.35;;
48813;SDS011;34634;44.108;3.074;2022-07-18T15:55:36;2.95;;;2.60;;
48813;SDS011;34634;44.108;3.074;2022-07-18T15:58:05;2.40;;;2.20;;